sensor_id;sensor_type;location;lat;lon;timestamp;P1;durP1;ratioP1;P2;durP2;ratioP2
35634;SDS011;21757;43.610;1.440;2023-07-31T00:00:28;8.60;;;4.63;;
35634;SDS011;21757;43.610;1.440;2023-07-31T00:02:54;9.32;;;4.63;;
35634;SDS011;21757;43.610;1.440;2023-07-31T00:05:20;13.90;;;4.53;;
35634;SDS011;21757;43.610;1.440;2023-07-31T00:07:46;9.23;;;4.53;;
35634;SDS011;21757;43.610;1.440;2023-07-31T00:10:11;8.85;;;4.03;;
35634;SDS011;21757;43.610;1.440;2023-07-31T00:12:42;11.73;;;4.50;;
35634;SDS011;21757;43.610;1.440;2023-07-31T00:15:09;11.35;;;4.50;;
35634;SDS011;21757;43.610;1.440;2023-07-31T00:17:35;9.07;;;4.50;;
35634;SDS011;21757;43.610;1.440;2023-07-31T00:20:01;8.20;;;4.32;;
35634;SDS011;21757;43.610;1.440;2023-07-31T00:22:27;10.43;;;4.90;;
35634;SDS011;21757;43.610;1.440;2023-07-31T00:24:53;12.45;;;4.20;;
35634;SDS011;21757;43.610;1.440;2023-07-31T00:27:18;8.32;;;4.03;;
35634;SDS011;21757;43.610;1.440;2023-07-31T00:29:44;7.82;;;4.10;;
35634;SDS011;21757;43.610;1.440;2023-07-31T00:32:10;10.02;;;4.60;;
35634;SDS011;21757;43.610;1.440;2023-07-31T00:34:35;12.00;;;4.35;;
35634;SDS011;21757;43.610;1.440;2023-07-31T00:37:01;10.32;;;4.28;;
35634;SDS011;21757;43.610;1.440;2023-07-31T00:39:27;12.13;;;5.63;;
35634;SDS011;21757;43.610;1.440;2023-07-31T00:41:54;8.75;;;4.18;;
35634;SDS011;21757;43.610;1.440;2023-07-31T00:44:20;9.77;;;4.60;;
35634;SDS011;21757;43.610;1.440;2023-07-31T00:46:46;11.02;;;4.70;;
35634;SDS011;21757;43.610;1.440;2023-07-31T00:49:11;11.75;;;4.72;;
35634;SDS011;21757;43.610;1.440;2023-07-31T00:51:37;9.75;;;4.90;;
35634;SDS011;21757;43.610;1.440;2023-07-31T00:54:03;9.05;;;4.15;;
35634;SDS011;21757;43.610;1.440;2023-07-31T00:56:29;11.60;;;4.70;;
35634;SDS011;21757;43.610;1.440;2023-07-31T00:58:55;12.18;;;4.85;;
35634;SDS011;21757;43.610;1.440;2023-07-31T01:01:21;11.02;;;4.70;;
35634;SDS011;21757;43.610;1.440;2023-07-31T01:03:47;8.77;;;4.57;;
35634;SDS011;21757;43.610;1.440;2023-07-31T01:06:31;7.53;;;4.10;;
35634;SDS011;21757;43.610;1.440;2023-07-31T01:09:20;8.43;;;4.25;;
35634;SDS011;21757;43.610;1.440;2023-07-31T01:11:58;9.18;;;4.35;;
35634;SDS011;21757;43.610;1.440;2023-07-31T01:14:27;8.23;;;4.25;;
35634;SDS011;21757;43.610;1.440;2023-07-31T01:16:52;8.02;;;4.45;;
35634;SDS011;21757;43.610;1.440;2023-07-31T01:19:21;11.38;;;4.55;;
35634;SDS011;21757;43.610;1.440;2023-07-31T01:27:49;9.77;;;4.60;;
35634;SDS011;21757;43.610;1.440;2023-07-31T01:30:32;9.25;;;4.32;;
35634;SDS011;21757;43.610;1.440;2023-07-31T01:33:00;7.00;;;4.15;;
35634;SDS011;21757;43.610;1.440;2023-07-31T01:35:32;7.10;;;4.70;;
35634;SDS011;21757;43.610;1.440;2023-07-31T01:37:58;14.18;;;4.40;;
35634;SDS011;21757;43.610;1.440;2023-07-31T01:40:24;9.13;;;4.68;;
35634;SDS011;21757;43.610;1.440;2023-07-31T01:42:50;9.65;;;4.22;;
35634;SDS011;21757;43.610;1.440;2023-07-31T01:45:15;9.80;;;4.90;;
35634;SDS011;21757;43.610;1.440;2023-07-31T01:47:41;11.35;;;4.63;;
35634;SDS011;21757;43.610;1.440;2023-07-31T01:50:07;11.32;;;4.90;;
35634;SDS011;21757;43.610;1.440;2023-07-31T01:52:33;9.70;;;5.03;;
35634;SDS011;21757;43.610;1.440;2023-07-31T01:54:58;8.60;;;4.80;;
35634;SDS011;21757;43.610;1.440;2023-07-31T01:57:24;10.10;;;5.10;;
35634;SDS011;21757;43.610;1.440;2023-07-31T01:59:50;10.65;;;5.05;;
35634;SDS011;21757;43.610;1.440;2023-07-31T02:02:16;10.55;;;4.78;;
35634;SDS011;21757;43.610;1.440;2023-07-31T02:04:41;8.95;;;4.55;;
35634;SDS011;21757;43.610;1.440;2023-07-31T02:07:07;9.23;;;4.78;;
35634;SDS011;21757;43.610;1.440;2023-07-31T02:09:32;10.23;;;4.97;;
35634;SDS011;21757;43.610;1.440;2023-07-31T02:11:58;12.23;;;5.10;;
35634;SDS011;21757;43.610;1.440;2023-07-31T02:14:24;8.00;;;4.75;;
35634;SDS011;21757;43.610;1.440;2023-07-31T02:16:50;13.50;;;5.00;;
35634;SDS011;21757;43.610;1.440;2023-07-31T02:19:16;12.38;;;5.43;;
35634;SDS011;21757;43.610;1.440;2023-07-31T02:21:41;7.65;;;4.30;;
35634;SDS011;21757;43.610;1.440;2023-07-31T02:24:07;11.95;;;5.03;;
35634;SDS011;21757;43.610;1.440;2023-07-31T02:26:33;13.60;;;5.22;;
35634;SDS011;21757;43.610;1.440;2023-07-31T02:28:58;10.77;;;4.68;;
35634;SDS011;21757;43.610;1.440;2023-07-31T02:31:24;8.52;;;4.60;;
35634;SDS011;21757;43.610;1.440;2023-07-31T02:33:49;11.65;;;4.90;;
35634;SDS011;21757;43.610;1.440;2023-07-31T02:36:15;9.40;;;4.80;;
35634;SDS011;21757;43.610;1.440;2023-07-31T02:38:41;9.05;;;4.60;;
35634;SDS011;21757;43.610;1.440;2023-07-31T02:41:06;10.55;;;4.50;;
35634;SDS011;21757;43.610;1.440;2023-07-31T02:43:32;9.93;;;4.57;;
35634;SDS011;21757;43.610;1.440;2023-07-31T02:45:59;10.57;;;4.78;;
35634;SDS011;21757;43.610;1.440;2023-07-31T02:48:24;7.72;;;4.30;;
35634;SDS011;21757;43.610;1.440;2023-07-31T02:50:50;10.30;;;5.05;;
35634;SDS011;21757;43.610;1.440;2023-07-31T02:53:16;7.65;;;4.80;;
35634;SDS011;21757;43.610;1.440;2023-07-31T02:55:41;9.95;;;4.55;;
35634;SDS011;21757;43.610;1.440;2023-07-31T02:58:07;8.07;;;4.38;;
35634;SDS011;21757;43.610;1.440;2023-07-31T03:00:33;11.02;;;4.82;;
35634;SDS011;21757;43.610;1.440;2023-07-31T03:02:58;10.27;;;4.70;;
35634;SDS011;21757;43.610;1.440;2023-07-31T03:05:24;10.25;;;5.13;;
35634;SDS011;21757;43.610;1.440;2023-07-31T03:07:49;7.28;;;4.47;;
35634;SDS011;21757;43.610;1.440;2023-07-31T03:10:15;10.02;;;4.53;;
35634;SDS011;21757;43.610;1.440;2023-07-31T03:12:41;8.63;;;4.28;;
35634;SDS011;21757;43.610;1.440;2023-07-31T03:15:07;11.05;;;4.90;;
35634;SDS011;21757;43.610;1.440;2023-07-31T03:17:33;9.43;;;4.43;;
35634;SDS011;21757;43.610;1.440;2023-07-31T03:19:58;16.52;;;4.65;;
35634;SDS011;21757;43.610;1.440;2023-07-31T03:22:24;9.10;;;4.57;;
35634;SDS011;21757;43.610;1.440;2023-07-31T03:24:50;12.88;;;5.40;;
35634;SDS011;21757;43.610;1.440;2023-07-31T03:27:15;10.00;;;4.90;;
35634;SDS011;21757;43.610;1.440;2023-07-31T03:29:41;12.70;;;4.80;;
35634;SDS011;21757;43.610;1.440;2023-07-31T03:32:06;15.00;;;4.97;;
35634;SDS011;21757;43.610;1.440;2023-07-31T03:34:32;11.95;;;5.20;;
35634;SDS011;21757;43.610;1.440;2023-07-31T03:36:59;10.20;;;5.05;;
35634;SDS011;21757;43.610;1.440;2023-07-31T03:39:24;10.43;;;4.60;;
35634;SDS011;21757;43.610;1.440;2023-07-31T03:41:50;13.18;;;4.97;;
35634;SDS011;21757;43.610;1.440;2023-07-31T03:44:16;11.93;;;5.05;;
35634;SDS011;21757;43.610;1.440;2023-07-31T03:46:41;12.73;;;4.80;;
35634;SDS011;21757;43.610;1.440;2023-07-31T03:49:07;9.70;;;4.15;;
35634;SDS011;21757;43.610;1.440;2023-07-31T03:51:33;11.57;;;5.05;;
35634;SDS011;21757;43.610;1.440;2023-07-31T03:53:58;14.73;;;4.97;;
35634;SDS011;21757;43.610;1.440;2023-07-31T03:56:25;8.77;;;4.53;;
35634;SDS011;21757;43.610;1.440;2023-07-31T03:58:50;8.82;;;4.47;;
35634;SDS011;21757;43.610;1.440;2023-07-31T04:01:16;10.32;;;5.00;;
35634;SDS011;21757;43.610;1.440;2023-07-31T04:03:42;9.32;;;4.60;;
35634;SDS011;21757;43.610;1.440;2023-07-31T04:06:08;9.85;;;4.82;;
35634;SDS011;21757;43.610;1.440;2023-07-31T04:08:34;12.13;;;5.03;;
35634;SDS011;21757;43.610;1.440;2023-07-31T04:11:00;13.73;;;4.70;;
35634;SDS011;21757;43.610;1.440;2023-07-31T04:13:26;12.80;;;5.22;;
35634;SDS011;21757;43.610;1.440;2023-07-31T04:15:53;10.00;;;5.53;;
35634;SDS011;21757;43.610;1.440;2023-07-31T04:18:19;16.10;;;5.03;;
35634;SDS011;21757;43.610;1.440;2023-07-31T04:20:45;10.25;;;4.95;;
35634;SDS011;21757;43.610;1.440;2023-07-31T04:23:11;11.65;;;4.60;;
35634;SDS011;21757;43.610;1.440;2023-07-31T04:25:37;10.90;;;4.63;;
35634;SDS011;21757;43.610;1.440;2023-07-31T04:28:02;9.00;;;4.60;;
35634;SDS011;21757;43.610;1.440;2023-07-31T04:30:28;14.57;;;4.72;;
35634;SDS011;21757;43.610;1.440;2023-07-31T04:32:54;12.27;;;4.63;;
35634;SDS011;21757;43.610;1.440;2023-07-31T04:35:20;12.68;;;4.63;;
35634;SDS011;21757;43.610;1.440;2023-07-31T04:37:45;7.90;;;4.00;;
35634;SDS011;21757;43.610;1.440;2023-07-31T04:40:13;9.10;;;4.82;;
35634;SDS011;21757;43.610;1.440;2023-07-31T04:42:40;10.80;;;5.10;;
35634;SDS011;21757;43.610;1.440;2023-07-31T04:45:06;9.35;;;4.38;;
35634;SDS011;21757;43.610;1.440;2023-07-31T04:47:32;10.38;;;4.78;;
35634;SDS011;21757;43.610;1.440;2023-07-31T04:49:58;9.80;;;5.03;;
35634;SDS011;21757;43.610;1.440;2023-07-31T04:52:23;11.75;;;4.80;;
35634;SDS011;21757;43.610;1.440;2023-07-31T04:54:49;10.88;;;5.10;;
35634;SDS011;21757;43.610;1.440;2023-07-31T04:57:15;10.82;;;4.70;;
35634;SDS011;21757;43.610;1.440;2023-07-31T04:59:40;11.80;;;4.90;;
35634;SDS011;21757;43.610;1.440;2023-07-31T05:02:07;9.20;;;4.93;;
35634;SDS011;21757;43.610;1.440;2023-07-31T05:04:33;10.23;;;4.65;;
35634;SDS011;21757;43.610;1.440;2023-07-31T05:06:59;13.15;;;4.93;;
35634;SDS011;21757;43.610;1.440;2023-07-31T05:09:25;10.63;;;4.45;;
35634;SDS011;21757;43.610;1.440;2023-07-31T05:11:50;10.93;;;4.70;;
35634;SDS011;21757;43.610;1.440;2023-07-31T05:14:16;13.05;;;4.55;;
35634;SDS011;21757;43.610;1.440;2023-07-31T05:16:41;7.95;;;4.30;;
35634;SDS011;21757;43.610;1.440;2023-07-31T05:19:07;11.95;;;5.32;;
35634;SDS011;21757;43.610;1.440;2023-07-31T05:21:33;11.35;;;4.45;;
35634;SDS011;21757;43.610;1.440;2023-07-31T05:23:58;15.10;;;4.55;;
35634;SDS011;21757;43.610;1.440;2023-07-31T05:26:24;12.32;;;4.88;;
35634;SDS011;21757;43.610;1.440;2023-07-31T05:28:50;12.20;;;4.32;;
35634;SDS011;21757;43.610;1.440;2023-07-31T05:31:15;10.68;;;4.72;;
35634;SDS011;21757;43.610;1.440;2023-07-31T05:33:41;12.23;;;4.05;;
35634;SDS011;21757;43.610;1.440;2023-07-31T05:36:06;10.88;;;4.80;;
35634;SDS011;21757;43.610;1.440;2023-07-31T05:38:32;12.63;;;4.75;;
35634;SDS011;21757;43.610;1.440;2023-07-31T05:40:58;13.43;;;4.63;;
35634;SDS011;21757;43.610;1.440;2023-07-31T05:43:23;11.98;;;4.47;;
35634;SDS011;21757;43.610;1.440;2023-07-31T05:45:49;9.93;;;4.60;;
35634;SDS011;21757;43.610;1.440;2023-07-31T05:48:16;11.38;;;5.13;;
35634;SDS011;21757;43.610;1.440;2023-07-31T05:50:42;9.27;;;4.50;;
35634;SDS011;21757;43.610;1.440;2023-07-31T05:53:09;9.25;;;4.97;;
35634;SDS011;21757;43.610;1.440;2023-07-31T05:55:35;14.30;;;4.72;;
35634;SDS011;21757;43.610;1.440;2023-07-31T05:58:01;10.82;;;4.05;;
35634;SDS011;21757;43.610;1.440;2023-07-31T06:00:27;10.52;;;4.25;;
35634;SDS011;21757;43.610;1.440;2023-07-31T06:02:53;12.45;;;4.57;;
35634;SDS011;21757;43.610;1.440;2023-07-31T06:05:18;10.85;;;4.68;;
35634;SDS011;21757;43.610;1.440;2023-07-31T06:07:44;12.93;;;4.68;;
35634;SDS011;21757;43.610;1.440;2023-07-31T06:10:10;13.68;;;4.70;;
35634;SDS011;21757;43.610;1.440;2023-07-31T06:12:35;11.40;;;4.53;;
35634;SDS011;21757;43.610;1.440;2023-07-31T06:15:02;10.85;;;4.50;;
35634;SDS011;21757;43.610;1.440;2023-07-31T06:17:28;14.80;;;4.68;;
35634;SDS011;21757;43.610;1.440;2023-07-31T06:19:56;15.23;;;4.68;;
35634;SDS011;21757;43.610;1.440;2023-07-31T06:22:22;14.25;;;4.50;;
35634;SDS011;21757;43.610;1.440;2023-07-31T06:24:48;12.52;;;4.45;;
35634;SDS011;21757;43.610;1.440;2023-07-31T06:27:13;11.88;;;4.40;;
35634;SDS011;21757;43.610;1.440;2023-07-31T06:29:39;12.88;;;4.38;;
35634;SDS011;21757;43.610;1.440;2023-07-31T06:32:06;11.80;;;4.75;;
35634;SDS011;21757;43.610;1.440;2023-07-31T06:34:32;14.77;;;5.03;;
35634;SDS011;21757;43.610;1.440;2023-07-31T06:36:58;15.48;;;4.93;;
35634;SDS011;21757;43.610;1.440;2023-07-31T06:39:23;14.15;;;4.55;;
35634;SDS011;21757;43.610;1.440;2023-07-31T06:41:49;10.65;;;4.82;;
35634;SDS011;21757;43.610;1.440;2023-07-31T06:44:15;15.88;;;5.35;;
35634;SDS011;21757;43.610;1.440;2023-07-31T06:46:42;13.30;;;4.72;;
35634;SDS011;21757;43.610;1.440;2023-07-31T06:49:07;13.35;;;4.70;;
35634;SDS011;21757;43.610;1.440;2023-07-31T06:51:33;13.20;;;4.63;;
35634;SDS011;21757;43.610;1.440;2023-07-31T06:54:00;15.95;;;5.38;;
35634;SDS011;21757;43.610;1.440;2023-07-31T06:56:26;15.82;;;4.85;;
35634;SDS011;21757;43.610;1.440;2023-07-31T06:58:52;14.73;;;4.82;;
35634;SDS011;21757;43.610;1.440;2023-07-31T07:01:18;13.80;;;4.57;;
35634;SDS011;21757;43.610;1.440;2023-07-31T07:03:44;16.00;;;4.50;;
35634;SDS011;21757;43.610;1.440;2023-07-31T07:06:09;11.30;;;4.38;;
35634;SDS011;21757;43.610;1.440;2023-07-31T07:08:35;10.38;;;4.22;;
35634;SDS011;21757;43.610;1.440;2023-07-31T07:11:01;17.58;;;5.20;;
35634;SDS011;21757;43.610;1.440;2023-07-31T07:13:26;14.50;;;4.50;;
35634;SDS011;21757;43.610;1.440;2023-07-31T07:15:52;11.98;;;4.60;;
35634;SDS011;21757;43.610;1.440;2023-07-31T07:18:18;15.13;;;4.60;;
35634;SDS011;21757;43.610;1.440;2023-07-31T07:20:50;12.27;;;4.88;;
35634;SDS011;21757;43.610;1.440;2023-07-31T07:23:17;12.38;;;4.68;;
35634;SDS011;21757;43.610;1.440;2023-07-31T07:25:43;12.43;;;4.47;;
35634;SDS011;21757;43.610;1.440;2023-07-31T07:28:10;15.80;;;6.63;;
35634;SDS011;21757;43.610;1.440;2023-07-31T07:30:35;15.50;;;4.38;;
35634;SDS011;21757;43.610;1.440;2023-07-31T07:33:01;11.68;;;4.03;;
35634;SDS011;21757;43.610;1.440;2023-07-31T07:35:27;16.90;;;5.28;;
35634;SDS011;21757;43.610;1.440;2023-07-31T07:37:53;9.90;;;4.38;;
35634;SDS011;21757;43.610;1.440;2023-07-31T07:40:20;10.85;;;4.57;;
35634;SDS011;21757;43.610;1.440;2023-07-31T07:42:45;13.20;;;4.35;;
35634;SDS011;21757;43.610;1.440;2023-07-31T07:45:11;18.27;;;4.60;;
35634;SDS011;21757;43.610;1.440;2023-07-31T07:47:38;9.88;;;4.18;;
35634;SDS011;21757;43.610;1.440;2023-07-31T07:50:07;13.07;;;4.60;;
35634;SDS011;21757;43.610;1.440;2023-07-31T07:52:33;17.17;;;4.45;;
35634;SDS011;21757;43.610;1.440;2023-07-31T07:54:59;14.52;;;4.45;;
35634;SDS011;21757;43.610;1.440;2023-07-31T07:57:25;10.88;;;4.20;;
35634;SDS011;21757;43.610;1.440;2023-07-31T07:59:51;9.73;;;3.95;;
35634;SDS011;21757;43.610;1.440;2023-07-31T08:02:17;10.55;;;4.10;;
35634;SDS011;21757;43.610;1.440;2023-07-31T08:04:42;16.88;;;4.95;;
35634;SDS011;21757;43.610;1.440;2023-07-31T08:07:10;10.18;;;4.25;;
35634;SDS011;21757;43.610;1.440;2023-07-31T08:09:37;10.70;;;4.90;;
35634;SDS011;21757;43.610;1.440;2023-07-31T08:12:03;11.60;;;4.40;;
35634;SDS011;21757;43.610;1.440;2023-07-31T08:14:29;9.98;;;4.53;;
35634;SDS011;21757;43.610;1.440;2023-07-31T08:16:55;9.57;;;4.40;;
35634;SDS011;21757;43.610;1.440;2023-07-31T08:19:21;15.55;;;4.45;;
35634;SDS011;21757;43.610;1.440;2023-07-31T08:21:46;14.13;;;4.80;;
35634;SDS011;21757;43.610;1.440;2023-07-31T08:24:12;10.68;;;4.18;;
35634;SDS011;21757;43.610;1.440;2023-07-31T08:26:38;14.52;;;4.45;;
35634;SDS011;21757;43.610;1.440;2023-07-31T08:29:03;12.10;;;4.60;;
35634;SDS011;21757;43.610;1.440;2023-07-31T08:31:29;16.90;;;4.35;;
35634;SDS011;21757;43.610;1.440;2023-07-31T08:33:55;11.57;;;4.28;;
35634;SDS011;21757;43.610;1.440;2023-07-31T08:36:21;14.30;;;5.00;;
35634;SDS011;21757;43.610;1.440;2023-07-31T08:38:46;15.20;;;6.93;;
35634;SDS011;21757;43.610;1.440;2023-07-31T08:41:12;16.27;;;7.13;;
35634;SDS011;21757;43.610;1.440;2023-07-31T08:43:38;14.57;;;5.00;;
35634;SDS011;21757;43.610;1.440;2023-07-31T08:46:05;10.15;;;4.43;;
35634;SDS011;21757;43.610;1.440;2023-07-31T08:48:31;15.88;;;9.93;;
35634;SDS011;21757;43.610;1.440;2023-07-31T08:50:57;10.48;;;3.97;;
35634;SDS011;21757;43.610;1.440;2023-07-31T08:53:23;10.07;;;4.22;;
35634;SDS011;21757;43.610;1.440;2023-07-31T08:55:49;10.88;;;4.53;;
35634;SDS011;21757;43.610;1.440;2023-07-31T08:58:17;8.90;;;4.03;;
35634;SDS011;21757;43.610;1.440;2023-07-31T09:00:45;15.57;;;3.92;;
35634;SDS011;21757;43.610;1.440;2023-07-31T09:03:15;10.93;;;3.90;;
35634;SDS011;21757;43.610;1.440;2023-07-31T09:05:44;10.98;;;5.40;;
35634;SDS011;21757;43.610;1.440;2023-07-31T09:08:12;9.45;;;3.70;;
35634;SDS011;21757;43.610;1.440;2023-07-31T09:10:45;12.23;;;4.78;;
35634;SDS011;21757;43.610;1.440;2023-07-31T09:13:12;13.85;;;8.02;;
35634;SDS011;21757;43.610;1.440;2023-07-31T09:15:38;9.20;;;3.90;;
35634;SDS011;21757;43.610;1.440;2023-07-31T09:18:07;7.28;;;3.70;;
35634;SDS011;21757;43.610;1.440;2023-07-31T09:20:33;8.38;;;2.65;;
35634;SDS011;21757;43.610;1.440;2023-07-31T09:23:05;6.82;;;3.10;;
35634;SDS011;21757;43.610;1.440;2023-07-31T09:25:34;7.97;;;2.75;;
35634;SDS011;21757;43.610;1.440;2023-07-31T09:28:00;9.35;;;3.13;;
35634;SDS011;21757;43.610;1.440;2023-07-31T09:30:28;7.05;;;2.90;;
35634;SDS011;21757;43.610;1.440;2023-07-31T09:33:01;7.10;;;2.80;;
35634;SDS011;21757;43.610;1.440;2023-07-31T09:35:34;6.07;;;3.22;;
35634;SDS011;21757;43.610;1.440;2023-07-31T09:38:05;9.07;;;3.08;;
35634;SDS011;21757;43.610;1.440;2023-07-31T09:40:37;7.90;;;3.28;;
35634;SDS011;21757;43.610;1.440;2023-07-31T09:43:04;8.25;;;2.75;;
35634;SDS011;21757;43.610;1.440;2023-07-31T09:48:02;7.47;;;3.30;;
35634;SDS011;21757;43.610;1.440;2023-07-31T09:50:31;7.15;;;3.08;;
35634;SDS011;21757;43.610;1.440;2023-07-31T09:52:57;9.35;;;3.35;;
35634;SDS011;21757;43.610;1.440;2023-07-31T09:55:23;6.82;;;3.53;;
35634;SDS011;21757;43.610;1.440;2023-07-31T09:57:49;11.60;;;3.75;;
35634;SDS011;21757;43.610;1.440;2023-07-31T10:00:16;10.32;;;3.30;;
35634;SDS011;21757;43.610;1.440;2023-07-31T10:02:45;6.97;;;3.28;;
35634;SDS011;21757;43.610;1.440;2023-07-31T10:05:15;6.43;;;3.22;;
35634;SDS011;21757;43.610;1.440;2023-07-31T10:07:42;8.13;;;3.20;;
35634;SDS011;21757;43.610;1.440;2023-07-31T10:10:13;5.78;;;3.30;;
35634;SDS011;21757;43.610;1.440;2023-07-31T10:12:41;6.57;;;2.90;;
35634;SDS011;21757;43.610;1.440;2023-07-31T10:15:08;7.35;;;2.72;;
35634;SDS011;21757;43.610;1.440;2023-07-31T10:17:35;6.25;;;2.70;;
35634;SDS011;21757;43.610;1.440;2023-07-31T10:20:02;11.13;;;2.80;;
35634;SDS011;21757;43.610;1.440;2023-07-31T10:22:31;6.80;;;2.67;;
35634;SDS011;21757;43.610;1.440;2023-07-31T10:24:58;7.05;;;2.80;;
35634;SDS011;21757;43.610;1.440;2023-07-31T10:27:25;6.65;;;2.58;;
35634;SDS011;21757;43.610;1.440;2023-07-31T10:29:55;6.00;;;3.03;;
35634;SDS011;21757;43.610;1.440;2023-07-31T10:32:22;6.15;;;3.20;;
35634;SDS011;21757;43.610;1.440;2023-07-31T10:34:49;5.93;;;3.10;;
35634;SDS011;21757;43.610;1.440;2023-07-31T10:37:22;5.70;;;3.10;;
35634;SDS011;21757;43.610;1.440;2023-07-31T10:42:51;5.05;;;3.10;;
35634;SDS011;21757;43.610;1.440;2023-07-31T10:45:25;5.47;;;2.90;;
35634;SDS011;21757;43.610;1.440;2023-07-31T10:47:59;6.25;;;3.78;;
35634;SDS011;21757;43.610;1.440;2023-07-31T10:50:29;6.60;;;2.90;;
35634;SDS011;21757;43.610;1.440;2023-07-31T10:52:57;6.88;;;3.08;;
35634;SDS011;21757;43.610;1.440;2023-07-31T10:57:50;7.47;;;3.22;;
35634;SDS011;21757;43.610;1.440;2023-07-31T11:03:24;7.60;;;2.85;;
35634;SDS011;21757;43.610;1.440;2023-07-31T11:08:25;7.53;;;3.28;;
35634;SDS011;21757;43.610;1.440;2023-07-31T11:13:29;6.60;;;2.90;;
35634;SDS011;21757;43.610;1.440;2023-07-31T11:16:04;8.70;;;3.25;;
35634;SDS011;21757;43.610;1.440;2023-07-31T11:18:29;6.57;;;3.00;;
35634;SDS011;21757;43.610;1.440;2023-07-31T11:20:55;9.65;;;3.83;;
35634;SDS011;21757;43.610;1.440;2023-07-31T11:23:21;5.32;;;3.30;;
35634;SDS011;21757;43.610;1.440;2023-07-31T11:25:47;7.43;;;3.00;;
35634;SDS011;21757;43.610;1.440;2023-07-31T11:28:14;6.28;;;3.08;;
35634;SDS011;21757;43.610;1.440;2023-07-31T11:30:42;5.93;;;2.92;;
35634;SDS011;21757;43.610;1.440;2023-07-31T11:33:09;9.95;;;3.22;;
35634;SDS011;21757;43.610;1.440;2023-07-31T11:35:40;6.03;;;3.47;;
35634;SDS011;21757;43.610;1.440;2023-07-31T11:38:12;11.20;;;3.97;;
35634;SDS011;21757;43.610;1.440;2023-07-31T11:40:47;7.25;;;3.40;;
35634;SDS011;21757;43.610;1.440;2023-07-31T11:43:13;6.35;;;3.20;;
35634;SDS011;21757;43.610;1.440;2023-07-31T11:45:42;8.35;;;3.22;;
35634;SDS011;21757;43.610;1.440;2023-07-31T11:48:18;7.68;;;3.58;;
35634;SDS011;21757;43.610;1.440;2023-07-31T11:50:52;5.60;;;3.03;;
35634;SDS011;21757;43.610;1.440;2023-07-31T11:53:22;9.38;;;3.67;;
35634;SDS011;21757;43.610;1.440;2023-07-31T11:55:50;7.05;;;3.35;;
35634;SDS011;21757;43.610;1.440;2023-07-31T11:58:19;5.82;;;2.83;;
35634;SDS011;21757;43.610;1.440;2023-07-31T12:00:46;6.75;;;3.42;;
35634;SDS011;21757;43.610;1.440;2023-07-31T12:03:12;8.23;;;3.20;;
35634;SDS011;21757;43.610;1.440;2023-07-31T12:05:38;6.40;;;3.08;;
35634;SDS011;21757;43.610;1.440;2023-07-31T12:08:08;6.88;;;3.40;;
35634;SDS011;21757;43.610;1.440;2023-07-31T12:10:37;7.28;;;3.40;;
35634;SDS011;21757;43.610;1.440;2023-07-31T12:13:07;9.73;;;3.30;;
35634;SDS011;21757;43.610;1.440;2023-07-31T12:15:40;8.32;;;3.15;;
35634;SDS011;21757;43.610;1.440;2023-07-31T12:18:10;6.85;;;3.13;;
35634;SDS011;21757;43.610;1.440;2023-07-31T12:20:43;6.65;;;3.22;;
35634;SDS011;21757;43.610;1.440;2023-07-31T12:23:14;5.40;;;3.03;;
35634;SDS011;21757;43.610;1.440;2023-07-31T12:25:44;8.60;;;2.97;;
35634;SDS011;21757;43.610;1.440;2023-07-31T12:28:10;6.45;;;3.00;;
35634;SDS011;21757;43.610;1.440;2023-07-31T12:30:39;5.28;;;2.60;;
35634;SDS011;21757;43.610;1.440;2023-07-31T12:35:40;6.85;;;3.35;;
35634;SDS011;21757;43.610;1.440;2023-07-31T12:38:08;8.40;;;3.40;;
35634;SDS011;21757;43.610;1.440;2023-07-31T12:40:35;5.07;;;2.88;;
35634;SDS011;21757;43.610;1.440;2023-07-31T12:43:02;5.50;;;3.10;;
35634;SDS011;21757;43.610;1.440;2023-07-31T12:45:31;5.50;;;3.22;;
35634;SDS011;21757;43.610;1.440;2023-07-31T12:48:00;7.03;;;3.25;;
35634;SDS011;21757;43.610;1.440;2023-07-31T12:50:26;5.63;;;3.30;;
35634;SDS011;21757;43.610;1.440;2023-07-31T12:52:53;7.38;;;3.25;;
35634;SDS011;21757;43.610;1.440;2023-07-31T12:55:20;9.60;;;3.40;;
35634;SDS011;21757;43.610;1.440;2023-07-31T12:57:46;5.57;;;3.17;;
35634;SDS011;21757;43.610;1.440;2023-07-31T13:00:12;8.63;;;3.00;;
35634;SDS011;21757;43.610;1.440;2023-07-31T13:02:38;5.75;;;3.15;;
35634;SDS011;21757;43.610;1.440;2023-07-31T13:05:04;10.52;;;3.70;;
35634;SDS011;21757;43.610;1.440;2023-07-31T13:07:30;8.13;;;3.15;;
35634;SDS011;21757;43.610;1.440;2023-07-31T13:09:56;5.70;;;2.90;;
35634;SDS011;21757;43.610;1.440;2023-07-31T13:12:21;6.72;;;3.10;;
35634;SDS011;21757;43.610;1.440;2023-07-31T13:14:47;8.93;;;4.00;;
35634;SDS011;21757;43.610;1.440;2023-07-31T13:17:13;5.68;;;2.70;;
35634;SDS011;21757;43.610;1.440;2023-07-31T13:19:38;8.50;;;2.95;;
35634;SDS011;21757;43.610;1.440;2023-07-31T13:22:04;4.43;;;3.05;;
35634;SDS011;21757;43.610;1.440;2023-07-31T13:24:30;7.70;;;3.33;;
35634;SDS011;21757;43.610;1.440;2023-07-31T13:26:56;4.15;;;2.80;;
35634;SDS011;21757;43.610;1.440;2023-07-31T13:29:22;5.10;;;2.70;;
35634;SDS011;21757;43.610;1.440;2023-07-31T13:31:48;7.28;;;2.80;;
35634;SDS011;21757;43.610;1.440;2023-07-31T13:34:14;5.78;;;2.90;;
35634;SDS011;21757;43.610;1.440;2023-07-31T13:36:40;7.45;;;2.95;;
35634;SDS011;21757;43.610;1.440;2023-07-31T13:39:06;5.35;;;2.80;;
35634;SDS011;21757;43.610;1.440;2023-07-31T13:41:32;5.22;;;2.42;;
35634;SDS011;21757;43.610;1.440;2023-07-31T13:43:58;5.68;;;2.80;;
35634;SDS011;21757;43.610;1.440;2023-07-31T13:46:23;3.92;;;2.67;;
35634;SDS011;21757;43.610;1.440;2023-07-31T13:48:50;4.88;;;3.10;;
35634;SDS011;21757;43.610;1.440;2023-07-31T13:51:16;5.43;;;3.38;;
35634;SDS011;21757;43.610;1.440;2023-07-31T13:53:42;5.93;;;2.90;;
35634;SDS011;21757;43.610;1.440;2023-07-31T13:56:07;5.80;;;2.97;;
35634;SDS011;21757;43.610;1.440;2023-07-31T13:58:33;5.60;;;3.25;;
35634;SDS011;21757;43.610;1.440;2023-07-31T14:00:59;5.65;;;3.63;;
35634;SDS011;21757;43.610;1.440;2023-07-31T14:03:24;4.65;;;2.78;;
35634;SDS011;21757;43.610;1.440;2023-07-31T14:05:51;6.22;;;3.17;;
35634;SDS011;21757;43.610;1.440;2023-07-31T14:08:17;4.93;;;3.20;;
35634;SDS011;21757;43.610;1.440;2023-07-31T14:10:43;4.95;;;3.28;;
35634;SDS011;21757;43.610;1.440;2023-07-31T14:13:08;5.72;;;3.20;;
35634;SDS011;21757;43.610;1.440;2023-07-31T14:15:34;5.65;;;3.30;;
35634;SDS011;21757;43.610;1.440;2023-07-31T14:18:01;6.03;;;2.92;;
35634;SDS011;21757;43.610;1.440;2023-07-31T14:20:27;5.70;;;3.10;;
35634;SDS011;21757;43.610;1.440;2023-07-31T14:22:53;8.30;;;3.35;;
35634;SDS011;21757;43.610;1.440;2023-07-31T14:25:20;5.53;;;3.45;;
35634;SDS011;21757;43.610;1.440;2023-07-31T14:27:45;4.63;;;3.20;;
35634;SDS011;21757;43.610;1.440;2023-07-31T14:30:11;7.43;;;3.92;;
35634;SDS011;21757;43.610;1.440;2023-07-31T14:32:37;8.43;;;3.75;;
35634;SDS011;21757;43.610;1.440;2023-07-31T14:35:03;8.13;;;3.67;;
35634;SDS011;21757;43.610;1.440;2023-07-31T14:37:36;6.97;;;3.75;;
35634;SDS011;21757;43.610;1.440;2023-07-31T14:40:04;7.28;;;3.95;;
35634;SDS011;21757;43.610;1.440;2023-07-31T14:42:31;6.80;;;3.28;;
35634;SDS011;21757;43.610;1.440;2023-07-31T14:44:56;5.95;;;3.80;;
35634;SDS011;21757;43.610;1.440;2023-07-31T14:47:22;7.47;;;3.95;;
35634;SDS011;21757;43.610;1.440;2023-07-31T14:49:48;6.93;;;4.07;;
35634;SDS011;21757;43.610;1.440;2023-07-31T14:52:13;10.05;;;3.90;;
35634;SDS011;21757;43.610;1.440;2023-07-31T14:54:39;6.75;;;3.67;;
35634;SDS011;21757;43.610;1.440;2023-07-31T14:57:05;6.15;;;3.67;;
35634;SDS011;21757;43.610;1.440;2023-07-31T14:59:31;6.03;;;3.70;;
35634;SDS011;21757;43.610;1.440;2023-07-31T15:01:56;8.27;;;3.95;;